Time;durP1;ratioP1;P1;durP2;ratioP2;P2;SDS_P1;SDS_P2;PMS_P1;PMS_P2;Temp;Humidity;BMP_temperature;BMP_pressure;BME280_temperature;BME280_humidity;BME280_pressure;Samples;Min_cycle;Max_cycle;Signal;HPM_P1;HPM_P2
2023/10/26 00:00:28;;;;;;;9.85;9.02;;;;;;;9.26;100.00;99726.59;5066032;28;20032;-84
2023/10/26 00:02:54;;;;;;;9.63;8.73;;;;;;;9.23;100.00;99727.56;5063662;28;20265;-85
2023/10/26 00:05:19;;;;;;;8.55;7.80;;;;;;;9.18;100.00;99726.13;5062997;28;20032;-85
2023/10/26 00:07:45;;;;;;;7.32;6.72;;;;;;;9.12;100.00;99727.28;5076357;28;20389;-84
2023/10/26 00:10:10;;;;;;;7.38;6.80;;;;;;;9.11;100.00;99724.75;5073930;28;20066;-85
2023/10/26 00:12:36;;;;;;;7.93;7.25;;;;;;;9.09;100.00;99732.66;5062090;28;20135;-85
2023/10/26 00:15:01;;;;;;;8.23;7.40;;;;;;;9.00;100.00;99734.00;5068072;28;20029;-84
2023/10/26 00:17:27;;;;;;;7.25;6.43;;;;;;;8.94;100.00;99729.09;5071038;28;20387;-85
2023/10/26 00:19:52;;;;;;;7.03;6.43;;;;;;;8.88;100.00;99736.38;5064990;28;20126;-85
2023/10/26 00:22:21;;;;;;;7.00;6.40;;;;;;;8.81;100.00;99739.31;5063822;28;20056;-85
2023/10/26 00:24:46;;;;;;;6.35;5.85;;;;;;;8.82;100.00;99741.03;5061943;28;20725;-85
2023/10/26 00:27:14;;;;;;;6.63;6.13;;;;;;;8.84;100.00;99739.19;5067084;28;20100;-85
2023/10/26 00:29:40;;;;;;;7.20;6.40;;;;;;;8.83;100.00;99726.19;5057750;28;20096;-84
2023/10/26 00:32:06;;;;;;;7.00;6.50;;;;;;;8.84;100.00;99731.34;5058415;28;20033;-85
2023/10/26 00:34:32;;;;;;;7.05;6.45;;;;;;;8.80;100.00;99728.94;5073058;28;20291;-85
2023/10/26 00:36:58;;;;;;;6.57;6.07;;;;;;;8.74;100.00;99732.72;5072727;28;20032;-84
2023/10/26 00:39:23;;;;;;;6.40;5.95;;;;;;;8.68;100.00;99729.56;5058156;28;20051;-84
2023/10/26 00:41:53;;;;;;;7.03;6.53;;;;;;;8.64;100.00;99734.09;5064523;28;20074;-84
2023/10/26 00:44:19;;;;;;;6.78;6.28;;;;;;;8.60;100.00;99737.78;5057771;28;20032;-85
2023/10/26 00:46:45;;;;;;;6.82;6.32;;;;;;;8.57;100.00;99733.56;5057386;28;20043;-85
2023/10/26 00:49:12;;;;;;;6.53;6.03;;;;;;;8.54;100.00;99738.94;5077515;28;20044;-85
2023/10/26 00:51:43;;;;;;;5.95;5.55;;;;;;;8.51;100.00;99741.69;5065001;28;20032;-85
2023/10/26 00:54:09;;;;;;;6.97;6.38;;;;;;;8.46;100.00;99743.72;5076089;28;20328;-84
2023/10/26 00:56:35;;;;;;;5.97;5.57;;;;;;;8.43;100.00;99739.47;5077409;28;20036;-84
2023/10/26 00:59:03;;;;;;;5.75;5.35;;;;;;;8.42;100.00;99742.16;5077263;28;20045;-85
2023/10/26 01:01:30;;;;;;;5.82;5.32;;;;;;;8.40;100.00;99734.41;5076395;28;20216;-84
2023/10/26 01:03:56;;;;;;;5.40;5.10;;;;;;;8.39;100.00;99729.25;5068571;28;20041;-84
2023/10/26 01:06:22;;;;;;;5.45;5.05;;;;;;;8.35;100.00;99731.16;5057251;28;20268;-84
2023/10/26 01:08:48;;;;;;;6.00;5.50;;;;;;;8.32;100.00;99733.91;5069007;28;20077;-85
2023/10/26 01:11:14;;;;;;;4.90;4.60;;;;;;;8.29;100.00;99733.22;5077065;28;20079;-84
2023/10/26 01:13:41;;;;;;;5.32;5.00;;;;;;;8.26;100.00;99732.44;5067431;28;20036;-84
2023/10/26 01:16:06;;;;;;;4.75;4.45;;;;;;;8.23;100.00;99724.75;5057470;28;20041;-84
2023/10/26 01:18:32;;;;;;;5.32;4.93;;;;;;;8.20;100.00;99724.91;5057463;28;20260;-84
2023/10/26 01:20:57;;;;;;;4.63;4.32;;;;;;;8.15;100.00;99721.69;5060037;28;20130;-84
2023/10/26 01:23:22;;;;;;;4.68;4.38;;;;;;;8.16;100.00;99722.53;5048801;28;20019;-84
2023/10/26 01:25:52;;;;;;;5.68;5.18;;;;;;;8.15;100.00;99724.31;5076050;28;20104;-84
2023/10/26 01:28:17;;;;;;;5.28;4.88;;;;;;;8.10;100.00;99721.06;5057715;28;20028;-85
2023/10/26 01:30:43;;;;;;;6.20;5.68;;;;;;;8.07;100.00;99726.44;5076036;28;20124;-84
2023/10/26 01:33:09;;;;;;;6.68;6.10;;;;;;;8.07;100.00;99721.22;5074505;28;20040;-85
2023/10/26 01:35:40;;;;;;;6.85;6.28;;;;;;;8.03;100.00;99720.50;5058232;28;20035;-84
2023/10/26 01:38:06;;;;;;;6.38;5.88;;;;;;;8.01;100.00;99724.13;5075253;28;20044;-85
2023/10/26 01:40:32;;;;;;;6.50;6.00;;;;;;;7.99;100.00;99723.34;5075448;28;20044;-85
2023/10/26 01:42:57;;;;;;;6.78;6.15;;;;;;;7.99;100.00;99720.75;5075669;28;20060;-84
2023/10/26 01:45:23;;;;;;;6.68;6.07;;;;;;;7.94;100.00;99720.13;5061886;28;20043;-84
2023/10/26 01:47:48;;;;;;;6.35;5.85;;;;;;;7.90;100.00;99729.84;5055484;28;20056;-84
2023/10/26 01:50:13;;;;;;;6.30;5.80;;;;;;;7.84;100.00;99720.56;5058324;28;20251;-84
2023/10/26 01:52:39;;;;;;;4.82;4.43;;;;;;;7.82;100.00;99726.75;5038245;28;20040;-84
2023/10/26 01:55:04;;;;;;;4.90;4.60;;;;;;;7.79;100.00;99725.13;5057342;28;20036;-84
2023/10/26 01:57:30;;;;;;;5.15;4.82;;;;;;;7.77;100.00;99728.75;5056397;28;20040;-84
2023/10/26 01:59:56;;;;;;;4.82;4.53;;;;;;;7.73;100.00;99735.84;5060371;28;20328;-84
2023/10/26 02:03:05;;;;;;;4.82;4.38;;;;;;;7.71;100.00;99740.28;5002862;28;20191;-84
2023/10/26 02:05:31;;;;;;;4.03;3.83;;;;;;;7.68;100.00;99740.44;5073370;28;20033;-85
2023/10/26 02:07:56;;;;;;;4.75;4.35;;;;;;;7.71;100.00;99744.66;5060514;28;20354;-84
2023/10/26 02:10:23;;;;;;;4.32;4.05;;;;;;;7.68;100.00;99732.63;5046347;28;20032;-84
2023/10/26 02:12:50;;;;;;;5.10;4.80;;;;;;;7.66;100.00;99714.44;5055611;28;20052;-84
2023/10/26 02:15:16;;;;;;;4.90;4.60;;;;;;;7.65;100.00;99707.53;5055847;28;20040;-84
2023/10/26 02:17:41;;;;;;;5.72;5.38;;;;;;;7.65;100.00;99710.13;5055699;28;20240;-84
2023/10/26 02:20:11;;;;;;;6.47;5.90;;;;;;;7.67;100.00;99707.47;5055729;28;20037;-84
2023/10/26 02:22:36;;;;;;;6.32;5.82;;;;;;;7.69;100.00;99708.22;5053152;28;20217;-85
2023/10/26 02:25:01;;;;;;;5.63;5.13;;;;;;;7.69;100.00;99703.88;5053938;28;20037;-85
2023/10/26 02:27:27;;;;;;;6.35;5.85;;;;;;;7.68;100.00;99717.81;5054421;28;20355;-85
2023/10/26 02:29:52;;;;;;;5.70;5.30;;;;;;;7.69;100.00;99716.03;5049482;28;20101;-85
2023/10/26 02:32:17;;;;;;;5.80;5.40;;;;;;;7.67;100.00;99717.88;5035622;28;20090;-85
2023/10/26 02:34:43;;;;;;;6.07;5.55;;;;;;;7.65;100.00;99717.94;5054489;28;20043;-85
2023/10/26 02:37:08;;;;;;;6.18;5.72;;;;;;;7.66;100.00;99717.03;5054511;28;20060;-84
2023/10/26 02:39:34;;;;;;;6.22;5.80;;;;;;;7.63;100.00;99711.13;5054422;28;20036;-85
2023/10/26 02:41:59;;;;;;;6.68;6.18;;;;;;;7.64;100.00;99718.00;5054286;28;20036;-85
2023/10/26 02:44:25;;;;;;;7.00;6.50;;;;;;;7.64;100.00;99715.41;5054458;28;20383;-85
2023/10/26 02:46:50;;;;;;;7.53;6.82;;;;;;;7.64;100.00;99712.81;5053299;28;20086;-85
2023/10/26 02:49:16;;;;;;;6.57;6.07;;;;;;;7.67;100.00;99717.88;5054754;28;20082;-85
2023/10/26 02:51:41;;;;;;;6.82;6.32;;;;;;;7.65;100.00;99709.28;5053858;28;20028;-85
2023/10/26 02:54:06;;;;;;;7.30;6.70;;;;;;;7.64;100.00;99710.19;5054563;28;20036;-85
2023/10/26 02:56:32;;;;;;;8.00;7.32;;;;;;;7.63;100.00;99700.72;5051235;28;20039;-85
2023/10/26 02:58:57;;;;;;;7.85;7.13;;;;;;;7.62;100.00;99696.41;5056013;28;20037;-85
2023/10/26 03:01:22;;;;;;;7.40;6.78;;;;;;;7.62;100.00;99701.59;5039390;28;20104;-85
2023/10/26 03:03:48;;;;;;;8.38;7.57;;;;;;;7.61;100.00;99705.97;5057890;28;20041;-85
2023/10/26 03:06:13;;;;;;;7.93;7.22;;;;;;;7.60;100.00;99700.84;5058545;28;20084;-85
2023/10/26 03:08:39;;;;;;;7.60;7.00;;;;;;;7.59;100.00;99706.97;5057517;28;20033;-85
2023/10/26 03:11:04;;;;;;;8.43;7.72;;;;;;;7.59;100.00;99715.63;5065480;28;20040;-85
2023/10/26 03:13:29;;;;;;;8.10;7.40;;;;;;;7.56;100.00;99704.50;5059090;28;20104;-85
2023/10/26 03:15:55;;;;;;;8.25;7.55;;;;;;;7.53;100.00;99699.44;5043037;28;20066;-85
2023/10/26 03:18:20;;;;;;;8.23;7.60;;;;;;;7.51;100.00;99704.72;5057690;28;20276;-85
2023/10/26 03:20:46;;;;;;;7.63;7.05;;;;;;;7.50;100.00;99698.66;5059676;28;20036;-85
2023/10/26 03:23:11;;;;;;;8.07;7.30;;;;;;;7.47;100.00;99695.34;5077561;28;20225;-85
2023/10/26 03:25:36;;;;;;;7.60;7.00;;;;;;;7.48;100.00;99691.84;5077852;28;20040;-85
2023/10/26 03:28:02;;;;;;;7.80;7.20;;;;;;;7.46;100.00;99684.09;5059370;28;20039;-85
2023/10/26 03:30:27;;;;;;;7.25;6.75;;;;;;;7.47;100.00;99687.53;5077094;28;20040;-85
2023/10/26 03:32:53;;;;;;;6.78;6.28;;;;;;;7.43;100.00;99681.63;5069562;28;20036;-85
2023/10/26 03:35:19;;;;;;;7.57;7.07;;;;;;;7.40;100.00;99689.56;5057793;28;20037;-85
2023/10/26 03:37:45;;;;;;;7.50;6.90;;;;;;;7.39;100.00;99687.06;5068531;28;20043;-87
2023/10/26 03:40:13;;;;;;;7.00;6.50;;;;;;;7.35;100.00;99696.78;5067503;28;20415;-87
2023/10/26 03:42:38;;;;;;;6.93;6.43;;;;;;;7.34;100.00;99699.44;5071484;28;20036;-85
2023/10/26 03:45:04;;;;;;;6.88;6.38;;;;;;;7.32;100.00;99688.25;5078026;28;20481;-85
2023/10/26 03:47:29;;;;;;;8.30;7.70;;;;;;;7.33;100.00;99685.59;5047591;28;20350;-85
2023/10/26 03:49:55;;;;;;;7.68;7.13;;;;;;;7.34;100.00;99696.84;5057735;28;20377;-85
2023/10/26 03:52:22;;;;;;;7.65;7.05;;;;;;;7.32;100.00;99691.69;5068767;28;20047;-85
2023/10/26 03:54:47;;;;;;;7.28;6.78;;;;;;;7.34;100.00;99689.03;5058876;28;20636;-85
2023/10/26 03:57:14;;;;;;;7.63;7.03;;;;;;;7.35;100.00;99686.34;5057934;28;20327;-85
2023/10/26 03:59:40;;;;;;;7.55;7.03;;;;;;;7.34;100.00;99681.22;5073487;28;20549;-85
2023/10/26 04:02:05;;;;;;;12.88;8.00;;;;;;;7.33;100.00;99674.31;5059426;28;20028;-85
2023/10/26 04:04:31;;;;;;;8.65;7.78;;;;;;;7.32;100.00;99670.84;5057887;28;20035;-85
2023/10/26 04:06:56;;;;;;;8.60;7.90;;;;;;;7.33;100.00;99677.78;5067324;28;20365;-85
2023/10/26 04:09:22;;;;;;;8.68;7.97;;;;;;;7.34;100.00;99663.81;5028408;28;20021;-85
2023/10/26 04:11:48;;;;;;;9.68;8.68;;;;;;;7.33;100.00;99662.16;5040766;28;20067;-85
2023/10/26 04:14:13;;;;;;;10.00;9.13;;;;;;;7.36;100.00;99668.97;5056292;28;20037;-85
2023/10/26 04:16:39;;;;;;;8.90;7.80;;;;;;;7.36;100.00;99661.16;5056560;28;20357;-85
2023/10/26 04:19:04;;;;;;;9.10;8.35;;;;;;;7.36;100.00;99654.16;5050917;28;20100;-85
2023/10/26 04:21:29;;;;;;;8.50;7.80;;;;;;;7.35;100.00;99659.44;5036588;28;20056;-85
2023/10/26 04:23:55;;;;;;;8.48;7.78;;;;;;;7.34;100.00;99660.38;5039487;28;20290;-86
2023/10/26 04:26:20;;;;;;;8.10;7.57;;;;;;;7.33;100.00;99656.94;5046429;28;20080;-85
2023/10/26 04:28:45;;;;;;;7.88;7.18;;;;;;;7.31;100.00;99661.34;5037100;28;20044;-85
2023/10/26 04:31:11;;;;;;;8.00;7.38;;;;;;;7.30;100.00;99659.66;5056424;28;20116;-85
2023/10/26 04:33:36;;;;;;;9.00;8.20;;;;;;;7.27;100.00;99663.25;5037568;28;20040;-85
2023/10/26 04:36:02;;;;;;;8.20;7.55;;;;;;;7.26;100.00;99663.34;5038506;28;20230;-85
2023/10/26 04:38:28;;;;;;;9.23;8.43;;;;;;;7.25;100.00;99659.88;5046548;28;20043;-85
2023/10/26 04:40:54;;;;;;;8.88;8.18;;;;;;;7.25;100.00;99659.03;5052621;28;20315;-85
2023/10/26 04:43:19;;;;;;;9.10;8.35;;;;;;;7.26;100.00;99650.31;5038558;28;20343;-85
2023/10/26 04:45:46;;;;;;;9.27;8.48;;;;;;;7.24;100.00;99655.59;5032707;28;20335;-85
2023/10/26 04:48:11;;;;;;;9.00;8.20;;;;;;;7.20;100.00;99653.19;5056477;28;20067;-85
2023/10/26 04:50:37;;;;;;;8.70;8.00;;;;;;;7.17;100.00;99653.31;5026443;28;20033;-85
2023/10/26 04:53:02;;;;;;;8.18;7.47;;;;;;;7.15;100.00;99657.75;5037047;28;20037;-85
2023/10/26 04:55:32;;;;;;;7.80;7.13;;;;;;;7.14;100.00;99653.47;5044702;28;20032;-85
2023/10/26 04:57:59;;;;;;;7.95;7.38;;;;;;;7.14;100.00;99650.88;5031206;28;20087;-85
2023/10/26 05:00:24;;;;;;;7.00;6.50;;;;;;;7.09;100.00;99659.75;5036472;28;20351;-85
2023/10/26 05:02:49;;;;;;;7.32;6.72;;;;;;;7.08;100.00;99652.84;5045848;28;20071;-85
2023/10/26 05:05:15;;;;;;;7.30;6.70;;;;;;;7.05;100.00;99649.53;5055495;28;20096;-85
2023/10/26 05:07:40;;;;;;;6.90;6.50;;;;;;;7.03;100.00;99644.38;5067788;28;20047;-85
2023/10/26 05:10:06;;;;;;;6.97;6.47;;;;;;;7.00;100.00;99649.72;5057662;28;20032;-86
2023/10/26 05:12:31;;;;;;;7.47;6.80;;;;;;;6.98;100.00;99653.31;5075787;28;20559;-85
2023/10/26 05:14:57;;;;;;;7.30;6.70;;;;;;;6.97;100.00;99652.47;5058388;28;20035;-86
2023/10/26 05:17:22;;;;;;;8.43;7.63;;;;;;;6.96;100.00;99655.97;5057915;28;20032;-85
2023/10/26 05:19:48;;;;;;;8.07;7.38;;;;;;;6.95;100.00;99651.72;5053725;28;20028;-86
2023/10/26 05:22:13;;;;;;;8.48;7.68;;;;;;;6.92;100.00;99652.66;5060294;28;20040;-85
2023/10/26 05:24:39;;;;;;;7.53;6.82;;;;;;;6.91;100.00;99653.59;5056549;28;20032;-85
2023/10/26 05:27:04;;;;;;;8.38;7.57;;;;;;;6.91;100.00;99661.41;5075080;28;20040;-85
2023/10/26 05:29:29;;;;;;;7.95;7.25;;;;;;;6.90;100.00;99661.47;5075195;28;20075;-85
2023/10/26 05:31:55;;;;;;;7.70;7.00;;;;;;;6.88;100.00;99658.09;5063799;28;20040;-85
2023/10/26 05:34:21;;;;;;;8.32;7.53;;;;;;;6.88;100.00;99642.47;5055316;28;20036;-85
2023/10/26 05:36:46;;;;;;;12.52;9.10;;;;;;;6.92;100.00;99652.66;5064685;28;20044;-85
2023/10/26 05:39:12;;;;;;;10.73;8.60;;;;;;;6.97;100.00;99644.66;5062217;28;20344;-85
2023/10/26 05:41:37;;;;;;;12.80;8.70;;;;;;;7.00;100.00;99633.25;5061375;28;20251;-85
2023/10/26 05:44:03;;;;;;;10.63;9.63;;;;;;;7.02;100.00;99631.44;5063430;28;20324;-85
2023/10/26 05:46:28;;;;;;;14.00;10.52;;;;;;;7.03;100.00;99628.75;5065336;28;20402;-85
2023/10/26 05:48:53;;;;;;;19.88;13.57;;;;;;;7.05;100.00;99632.13;5075160;28;20043;-85
2023/10/26 05:51:19;;;;;;;17.38;11.95;;;;;;;7.11;100.00;99637.09;5056592;28;20059;-85
2023/10/26 05:53:44;;;;;;;15.23;12.20;;;;;;;7.16;100.00;99642.06;5075438;28;20079;-85
2023/10/26 05:56:11;;;;;;;17.27;12.38;;;;;;;7.19;100.00;99641.09;5074650;28;20035;-85
2023/10/26 05:58:36;;;;;;;22.90;12.63;;;;;;;7.21;100.00;99634.06;5074253;28;20243;-85
2023/10/26 06:01:02;;;;;;;17.63;11.80;;;;;;;7.25;100.00;99633.00;5075506;28;20020;-85
2023/10/26 06:03:28;;;;;;;18.00;12.52;;;;;;;7.27;100.00;99631.16;5074335;28;20263;-85
2023/10/26 06:06:01;;;;;;;36.45;14.15;;;;;;;7.31;100.00;99619.69;5075009;28;20028;-85
2023/10/26 06:08:26;;;;;;;20.63;13.63;;;;;;;7.40;100.00;99616.63;5056203;28;20029;-85
2023/10/26 06:10:52;;;;;;;19.08;13.40;;;;;;;7.41;100.00;99613.13;5074408;28;20043;-85
2023/10/26 06:13:17;;;;;;;13.48;11.35;;;;;;;7.43;100.00;99613.91;5053521;28;20029;-85
2023/10/26 06:15:43;;;;;;;19.55;13.85;;;;;;;7.45;100.00;99619.88;5054729;28;20071;-85
2023/10/26 06:18:10;;;;;;;19.35;13.75;;;;;;;7.43;100.00;99621.72;5054973;28;20048;-85
2023/10/26 06:20:36;;;;;;;16.27;12.43;;;;;;;7.46;100.00;99624.19;5054622;28;20547;-85
2023/10/26 06:23:02;;;;;;;18.95;13.73;;;;;;;7.47;100.00;99618.03;5071941;28;20046;-85
2023/10/26 06:25:28;;;;;;;17.48;13.02;;;;;;;7.50;100.00;99617.91;5055707;28;20020;-85
2023/10/26 06:27:57;;;;;;;17.92;13.82;;;;;;;7.54;100.00;99618.59;5059136;28;20047;-86
2023/10/26 06:30:24;;;;;;;19.65;13.48;;;;;;;7.57;100.00;99612.41;5036597;28;20224;-86
2023/10/26 06:32:50;;;;;;;16.40;12.32;;;;;;;7.60;100.00;99622.66;5068018;28;20282;-86
2023/10/26 06:35:15;;;;;;;20.65;13.63;;;;;;;7.61;100.00;99619.16;5059658;28;20036;-85
2023/10/26 06:37:41;;;;;;;18.90;13.75;;;;;;;7.63;100.00;99618.16;5076794;28;20040;-85
2023/10/26 06:40:07;;;;;;;19.73;13.82;;;;;;;7.65;100.00;99625.91;5079153;28;20036;-85
2023/10/26 06:42:33;;;;;;;22.50;15.45;;;;;;;7.66;100.00;99622.41;5060233;28;20216;-85
2023/10/26 06:44:58;;;;;;;21.83;16.52;;;;;;;7.66;100.00;99625.00;5079275;28;20032;-85
2023/10/26 06:47:24;;;;;;;22.35;14.95;;;;;;;7.68;100.00;99633.59;5078720;28;20067;-85
2023/10/26 06:49:49;;;;;;;27.10;16.35;;;;;;;7.73;100.00;99625.53;5078707;28;20151;-85
2023/10/26 06:52:15;;;;;;;24.67;16.23;;;;;;;7.70;100.00;99629.16;5077461;28;20170;-85
2023/10/26 06:54:40;;;;;;;22.92;15.55;;;;;;;7.71;100.00;99628.22;5063296;28;20044;-85
2023/10/26 06:57:05;;;;;;;24.17;16.10;;;;;;;7.75;100.00;99634.97;5075506;28;20036;-85
2023/10/26 06:59:32;;;;;;;25.65;16.80;;;;;;;7.80;100.00;99630.38;5056462;28;20024;-85
2023/10/26 07:01:57;;;;;;;25.30;17.50;;;;;;;7.79;100.00;99631.31;5055662;28;20028;-85
2023/10/26 07:04:22;;;;;;;24.65;15.95;;;;;;;7.77;100.00;99629.69;5075483;28;20025;-85
2023/10/26 07:06:48;;;;;;;26.20;17.50;;;;;;;7.78;100.00;99632.22;5061327;28;20358;-85
2023/10/26 07:09:15;;;;;;;25.50;17.13;;;;;;;7.78;100.00;99626.16;5086971;28;20347;-85
2023/10/26 07:11:40;;;;;;;29.73;17.92;;;;;;;7.81;100.00;99632.06;5082299;28;20507;-85
2023/10/26 07:14:06;;;;;;;26.45;17.77;;;;;;;7.84;100.00;99636.28;5056549;28;20079;-85
2023/10/26 07:16:31;;;;;;;28.73;17.98;;;;;;;7.84;100.00;99634.53;5065567;28;20040;-85
2023/10/26 07:18:56;;;;;;;32.33;18.23;;;;;;;7.94;100.00;99640.13;5071425;28;20379;-85
2023/10/26 07:21:22;;;;;;;31.10;17.85;;;;;;;7.97;100.00;99647.81;5051990;28;20035;-85
2023/10/26 07:23:47;;;;;;;51.42;18.70;;;;;;;7.99;100.00;99638.16;5055717;28;20094;-85
2023/10/26 07:26:17;;;;;;;30.58;18.67;;;;;;;8.00;100.00;99633.78;5069299;28;20032;-86
2023/10/26 07:28:43;;;;;;;31.75;18.08;;;;;;;8.05;100.00;99634.41;5072965;28;20059;-85
2023/10/26 07:31:08;;;;;;;31.80;17.02;;;;;;;8.07;100.00;99638.59;5066082;28;20036;-85
2023/10/26 07:33:34;;;;;;;52.22;20.80;;;;;;;8.12;100.00;99633.16;5071820;28;20318;-85
2023/10/26 07:35:59;;;;;;;32.75;18.85;;;;;;;8.15;100.00;99630.41;5071056;28;20051;-86
2023/10/26 07:38:25;;;;;;;33.65;19.50;;;;;;;8.14;100.00;99633.94;5052148;28;20031;-86
2023/10/26 07:40:53;;;;;;;37.15;20.27;;;;;;;8.19;100.00;99637.16;5071738;28;20286;-85
2023/10/26 07:43:18;;;;;;;35.97;19.27;;;;;;;8.20;100.00;99632.78;5066096;28;20214;-85
2023/10/26 07:45:46;;;;;;;38.40;19.90;;;;;;;8.20;100.00;99638.00;5073152;28;20070;-87
2023/10/26 07:48:12;;;;;;;37.72;20.08;;;;;;;8.20;100.00;99635.38;5072874;28;20371;-87
2023/10/26 07:50:37;;;;;;;37.97;20.60;;;;;;;8.19;100.00;99634.56;5051089;28;20032;-86
2023/10/26 07:53:03;;;;;;;37.53;19.42;;;;;;;8.21;100.00;99640.53;5068771;28;20036;-86
2023/10/26 07:55:29;;;;;;;33.85;19.08;;;;;;;8.26;100.00;99638.53;5065042;28;20298;-86
2023/10/26 07:57:54;;;;;;;43.10;21.38;;;;;;;8.30;100.00;99643.63;5070122;28;20058;-86
2023/10/26 08:00:20;;;;;;;37.10;20.67;;;;;;;8.35;100.00;99634.63;5051067;28;20021;-87
2023/10/26 08:02:46;;;;;;;44.95;22.63;;;;;;;8.40;100.00;99637.00;5071471;28;20807;-86
2023/10/26 08:05:12;;;;;;;105.28;22.90;;;;;;;8.34;100.00;99635.53;5063934;28;20099;-86
2023/10/26 08:07:38;;;;;;;44.85;20.52;;;;;;;8.35;100.00;99639.84;5045328;28;20405;-86
2023/10/26 08:10:04;;;;;;;39.03;19.65;;;;;;;8.39;100.00;99643.16;5047771;28;20042;-87
2023/10/26 08:12:30;;;;;;;38.92;20.02;;;;;;;8.44;100.00;99643.75;5071483;28;20401;-86
2023/10/26 08:14:57;;;;;;;40.90;19.88;;;;;;;8.47;100.00;99641.00;5066573;28;20059;-86
2023/10/26 08:17:25;;;;;;;40.45;19.13;;;;;;;8.50;100.00;99645.25;5088145;28;20523;-86
2023/10/26 08:19:53;;;;;;;40.80;18.98;;;;;;;8.53;100.00;99635.50;5081813;28;20451;-86
2023/10/26 08:22:20;;;;;;;79.05;20.63;;;;;;;8.50;100.00;99637.41;5074183;28;20067;-86
2023/10/26 08:24:47;;;;;;;49.08;20.05;;;;;;;8.52;100.00;99633.81;5070106;28;20110;-87
2023/10/26 08:27:12;;;;;;;40.58;18.63;;;;;;;8.57;100.00;99634.41;5068718;28;20044;-86
2023/10/26 08:29:38;;;;;;;42.90;19.80;;;;;;;8.58;100.00;99638.69;5090178;28;20128;-87
2023/10/26 08:32:03;;;;;;;42.55;20.35;;;;;;;8.60;100.00;99636.00;5086176;28;20355;-86
2023/10/26 08:34:29;;;;;;;43.83;18.65;;;;;;;8.62;100.00;99645.47;5072451;28;20024;-86
2023/10/26 08:36:54;;;;;;;47.83;19.15;;;;;;;8.64;100.00;99641.00;5062423;28;20227;-86
2023/10/26 08:39:19;;;;;;;36.88;18.25;;;;;;;8.67;100.00;99641.75;5074136;28;20120;-86
2023/10/26 08:41:52;;;;;;;43.30;19.70;;;;;;;8.70;100.00;99645.06;5085002;28;20148;-86
2023/10/26 08:44:18;;;;;;;40.67;18.13;;;;;;;8.80;100.00;99637.56;5090174;28;20148;-86
2023/10/26 08:46:44;;;;;;;52.72;20.85;;;;;;;8.83;100.00;99634.81;5063001;28;20037;-86
2023/10/26 08:49:12;;;;;;;46.33;19.75;;;;;;;8.88;100.00;99643.25;5082534;28;20343;-87
2023/10/26 08:51:37;;;;;;;46.85;20.17;;;;;;;8.92;100.00;99641.31;5084726;28;20118;-87
2023/10/26 08:54:03;;;;;;;49.58;20.75;;;;;;;8.91;100.00;99645.69;5077018;28;20051;-86
2023/10/26 08:56:28;;;;;;;49.08;19.58;;;;;;;8.96;100.00;99642.84;5070086;28;20033;-86
2023/10/26 08:58:57;;;;;;;51.78;22.02;;;;;;;8.96;100.00;99641.06;5082655;28;20285;-87
2023/10/26 09:01:23;;;;;;;49.90;21.17;;;;;;;9.02;100.00;99642.50;5075600;28;20297;-87
2023/10/26 09:03:48;;;;;;;54.13;21.48;;;;;;;9.02;100.00;99639.91;5075869;28;20228;-87
2023/10/26 09:06:14;;;;;;;46.92;19.15;;;;;;;9.07;100.00;99626.59;5064911;28;20068;-87
2023/10/26 09:08:39;;;;;;;51.78;20.88;;;;;;;9.09;100.00;99627.38;5065443;28;20037;-87
2023/10/26 09:11:22;;;;;;;59.05;20.88;;;;;;;9.15;100.00;99634.84;5074382;28;20156;-87
2023/10/26 09:13:48;;;;;;;60.30;22.52;;;;;;;9.18;100.00;99634.69;5077036;28;20044;-87
2023/10/26 09:16:13;;;;;;;52.88;20.60;;;;;;;9.23;100.00;99637.91;5068574;28;20063;-87
2023/10/26 09:18:39;;;;;;;57.65;21.70;;;;;;;9.25;100.00;99632.59;5063471;28;20293;-86
2023/10/26 09:21:07;;;;;;;55.42;21.83;;;;;;;9.26;100.00;99621.22;5069676;28;20228;-87
2023/10/26 09:23:37;;;;;;;58.97;22.75;;;;;;;9.27;100.00;99631.59;5071966;28;20039;-87
2023/10/26 09:26:08;;;;;;;54.63;20.95;;;;;;;9.27;100.00;99625.53;5074041;28;20054;-87
2023/10/26 09:28:53;;;;;;;55.85;22.52;;;;;;;9.29;100.00;99614.06;5065607;28;20066;-87
2023/10/26 09:31:20;;;;;;;57.13;22.55;;;;;;;9.33;100.00;99607.75;5066802;28;20024;-87
2023/10/26 09:33:46;;;;;;;54.38;21.50;;;;;;;9.34;100.00;99604.19;5050817;28;20358;-87
2023/10/26 09:36:13;;;;;;;51.78;21.77;;;;;;;9.38;100.00;99608.31;5070194;28;20044;-87
2023/10/26 09:38:39;;;;;;;53.28;24.27;;;;;;;9.38;100.00;99603.09;5065915;28;20033;-87
2023/10/26 09:41:11;;;;;;;55.63;22.65;;;;;;;9.46;100.00;99601.81;5066226;28;20103;-87
2023/10/26 09:43:37;;;;;;;49.53;22.25;;;;;;;9.48;100.00;99605.19;5067954;28;20037;-87
2023/10/26 09:46:03;;;;;;;53.90;22.88;;;;;;;9.52;100.00;99612.78;5064451;28;20040;-87
2023/10/26 09:48:29;;;;;;;53.15;25.02;;;;;;;9.52;100.00;99611.97;5065299;28;20033;-87
2023/10/26 09:50:54;;;;;;;52.47;23.88;;;;;;;9.52;100.00;99618.00;5060118;28;20323;-86
2023/10/26 09:53:23;;;;;;;59.28;25.95;;;;;;;9.48;100.00;99613.03;5051176;28;20032;-87
2023/10/26 09:55:50;;;;;;;49.13;24.67;;;;;;;9.49;100.00;99612.94;5071235;28;20036;-87
2023/10/26 09:58:16;;;;;;;46.30;23.10;;;;;;;9.51;100.00;99605.03;5052060;28;20372;-87
2023/10/26 10:00:42;;;;;;;53.88;25.15;;;;;;;9.48;100.00;99600.84;5054032;28;20115;-87
2023/10/26 10:03:11;;;;;;;52.22;24.48;;;;;;;9.50;100.00;99611.19;5065444;28;20040;-87
2023/10/26 10:05:41;;;;;;;52.45;24.58;;;;;;;9.54;100.00;99610.09;5065410;28;20041;-86
2023/10/26 10:08:07;;;;;;;51.53;24.15;;;;;;;9.59;100.00;99618.53;5063429;28;20130;-87
2023/10/26 10:10:33;;;;;;;50.92;23.20;;;;;;;9.69;100.00;99605.78;5048401;28;20036;-87
2023/10/26 10:12:59;;;;;;;57.25;27.55;;;;;;;9.79;100.00;99607.78;5046893;28;20355;-87
2023/10/26 10:15:38;;;;;;;48.78;23.50;;;;;;;9.89;100.00;99612.47;5046919;28;20188;-87
2023/10/26 10:18:05;;;;;;;63.67;26.88;;;;;;;9.90;100.00;99615.00;5068770;28;20029;-87
2023/10/26 10:20:33;;;;;;;53.97;25.55;;;;;;;9.94;100.00;99613.91;5054132;28;20024;-87
2023/10/26 10:23:04;;;;;;;50.15;23.63;;;;;;;10.01;100.00;99606.53;5076304;28;20046;-87
2023/10/26 10:25:58;;;;;;;46.42;24.05;;;;;;;10.02;100.00;99604.75;5073181;28;20282;-87
2023/10/26 10:28:23;;;;;;;40.63;22.25;;;;;;;10.05;100.00;99597.59;5043129;28;20060;-87
2023/10/26 10:30:57;;;;;;;42.05;22.05;;;;;;;10.11;100.00;99596.38;5071893;28;20056;-87
2023/10/26 10:33:25;;;;;;;43.88;22.55;;;;;;;10.14;100.00;99588.34;5069532;28;20032;-87
2023/10/26 10:36:01;;;;;;;44.08;22.13;;;;;;;10.19;100.00;99584.53;5086163;28;20047;-87
2023/10/26 10:38:27;;;;;;;42.97;22.80;;;;;;;10.25;100.00;99572.03;5072385;28;20334;-88
2023/10/26 10:40:55;;;;;;;38.92;20.75;;;;;;;10.30;100.00;99570.81;5088056;28;20078;-87
2023/10/26 10:43:43;;;;;;;38.47;21.55;;;;;;;10.37;100.00;99563.50;5074944;28;20377;-87
2023/10/26 10:46:13;;;;;;;38.83;21.20;;;;;;;10.43;100.00;99554.41;5071288;28;20483;-87
2023/10/26 10:49:05;;;;;;;29.95;19.02;;;;;;;10.40;100.00;99555.44;5073377;28;20027;-87
2023/10/26 10:51:36;;;;;;;32.10;17.42;;;;;;;10.44;100.00;99553.47;5067482;28;20312;-87
2023/10/26 10:54:04;;;;;;;28.55;18.05;;;;;;;10.50;100.00;99558.34;5070391;28;20036;-87
2023/10/26 10:56:40;;;;;;;23.60;15.65;;;;;;;10.54;100.00;99552.81;5064985;28;20039;-87
2023/10/26 10:59:25;;;;;;;22.75;14.60;;;;;;;10.56;100.00;99556.19;5064881;28;20024;-87
2023/10/26 11:02:06;;;;;;;22.77;14.32;;;;;;;10.62;100.00;99560.19;5064969;28;20029;-87
2023/10/26 11:04:31;;;;;;;19.77;13.00;;;;;;;10.67;100.00;99555.53;5077286;28;20145;-87
2023/10/26 11:06:57;;;;;;;16.17;11.60;;;;;;;10.70;100.00;99559.75;5068967;28;20063;-87
2023/10/26 11:09:31;;;;;;;16.40;11.80;;;;;;;10.63;100.00;99556.66;5055859;28;20271;-87
2023/10/26 11:12:08;;;;;;;15.05;11.18;;;;;;;10.67;100.00;99555.53;5058197;28;20036;-87
2023/10/26 11:14:33;;;;;;;17.52;12.52;;;;;;;10.67;100.00;99557.31;5070882;28;20052;-87
2023/10/26 11:16:59;;;;;;;15.85;12.10;;;;;;;10.71;100.00;99559.66;5069388;28;20347;-87
2023/10/26 11:19:25;;;;;;;17.77;12.73;;;;;;;10.78;100.00;99565.34;5051585;28;20413;-87
2023/10/26 11:21:58;;;;;;;16.10;11.85;;;;;;;10.79;100.00;99556.56;5063487;28;20048;-87